sensor_id;sensor_type;location;lat;lon;timestamp;temperature;humidity
4826;DHT22;2427;50.934;6.776;2022-11-12T00:00:52;5.90;99.90
4826;DHT22;2427;50.934;6.776;2022-11-12T00:03:19;5.90;99.90
4826;DHT22;2427;50.934;6.776;2022-11-12T00:05:45;5.80;31.30
4826;DHT22;2427;50.934;6.776;2022-11-12T00:08:11;5.80;99.90
4826;DHT22;2427;50.934;6.776;2022-11-12T00:10:37;5.80;1.00
4826;DHT22;2427;50.934;6.776;2022-11-12T00:13:03;5.80;1.00
4826;DHT22;2427;50.934;6.776;2022-11-12T00:15:28;5.80;99.90
4826;DHT22;2427;50.934;6.776;2022-11-12T00:17:54;5.80;1.00
4826;DHT22;2427;50.934;6.776;2022-11-12T00:20:20;5.80;99.90
4826;DHT22;2427;50.934;6.776;2022-11-12T00:22:45;5.70;1.00
4826;DHT22;2427;50.934;6.776;2022-11-12T00:25:11;5.70;99.90
4826;DHT22;2427;50.934;6.776;2022-11-12T00:27:36;5.70;99.90
4826;DHT22;2427;50.934;6.776;2022-11-12T00:30:03;5.70;99.90
4826;DHT22;2427;50.934;6.776;2022-11-12T00:32:28;5.60;99.90
4826;DHT22;2427;50.934;6.776;2022-11-12T00:34:54;5.60;1.00
4826;DHT22;2427;50.934;6.776;2022-11-12T00:37:19;5.60;1.00
4826;DHT22;2427;50.934;6.776;2022-11-12T00:39:47;5.60;1.00
4826;DHT22;2427;50.934;6.776;2022-11-12T00:42:13;5.50;27.60
4826;DHT22;2427;50.934;6.776;2022-11-12T00:44:38;5.50;52.50
4826;DHT22;2427;50.934;6.776;2022-11-12T00:47:04;5.50;99.90
4826;DHT22;2427;50.934;6.776;2022-11-12T00:49:30;5.60;99.90
4826;DHT22;2427;50.934;6.776;2022-11-12T00:51:55;5.70;1.00
4826;DHT22;2427;50.934;6.776;2022-11-12T00:54:21;5.80;1.00
4826;DHT22;2427;50.934;6.776;2022-11-12T00:56:46;5.80;1.00
4826;DHT22;2427;50.934;6.776;2022-11-12T00:59:12;5.90;1.00
4826;DHT22;2427;50.934;6.776;2022-11-12T01:01:38;6.00;1.00
4826;DHT22;2427;50.934;6.776;2022-11-12T01:04:04;6.00;1.00
4826;DHT22;2427;50.934;6.776;2022-11-12T01:06:30;6.10;1.00
4826;DHT22;2427;50.934;6.776;2022-11-12T01:08:56;6.20;1.00
4826;DHT22;2427;50.934;6.776;2022-11-12T01:11:27;6.20;1.00
4826;DHT22;2427;50.934;6.776;2022-11-12T01:13:58;6.20;1.00
4826;DHT22;2427;50.934;6.776;2022-11-12T01:16:27;6.20;1.00
4826;DHT22;2427;50.934;6.776;2022-11-12T01:18:56;6.20;1.00
4826;DHT22;2427;50.934;6.776;2022-11-12T01:21:24;6.30;1.00
4826;DHT22;2427;50.934;6.776;2022-11-12T01:23:50;6.30;1.00
4826;DHT22;2427;50.934;6.776;2022-11-12T01:26:18;6.30;1.00
4826;DHT22;2427;50.934;6.776;2022-11-12T01:28:44;6.30;1.00
4826;DHT22;2427;50.934;6.776;2022-11-12T01:31:14;6.30;1.00
4826;DHT22;2427;50.934;6.776;2022-11-12T01:33:41;6.30;1.00
4826;DHT22;2427;50.934;6.776;2022-11-12T01:36:07;6.30;1.00
4826;DHT22;2427;50.934;6.776;2022-11-12T01:38:34;6.30;1.00
4826;DHT22;2427;50.934;6.776;2022-11-12T01:41:00;6.40;1.00
4826;DHT22;2427;50.934;6.776;2022-11-12T01:43:26;6.30;1.00
4826;DHT22;2427;50.934;6.776;2022-11-12T01:45:52;6.30;1.00
4826;DHT22;2427;50.934;6.776;2022-11-12T01:48:31;6.30;1.00
4826;DHT22;2427;50.934;6.776;2022-11-12T01:50:57;6.30;1.00
4826;DHT22;2427;50.934;6.776;2022-11-12T01:53:26;6.20;1.00
4826;DHT22;2427;50.934;6.776;2022-11-12T01:55:52;6.30;1.00
4826;DHT22;2427;50.934;6.776;2022-11-12T01:58:23;6.20;1.00
4826;DHT22;2427;50.934;6.776;2022-11-12T02:11:14;6.20;1.00
4826;DHT22;2427;50.934;6.776;2022-11-12T02:13:41;6.20;1.00
4826;DHT22;2427;50.934;6.776;2022-11-12T02:16:23;6.20;1.00
4826;DHT22;2427;50.934;6.776;2022-11-12T02:18:49;6.30;1.00
4826;DHT22;2427;50.934;6.776;2022-11-12T02:21:21;6.20;1.00
4826;DHT22;2427;50.934;6.776;2022-11-12T02:23:54;6.20;1.00
4826;DHT22;2427;50.934;6.776;2022-11-12T02:26:22;6.10;1.00
4826;DHT22;2427;50.934;6.776;2022-11-12T02:28:47;6.20;1.00
4826;DHT22;2427;50.934;6.776;2022-11-12T02:31:13;6.20;1.00
4826;DHT22;2427;50.934;6.776;2022-11-12T02:33:39;6.10;1.00
4826;DHT22;2427;50.934;6.776;2022-11-12T02:36:04;6.10;1.00
4826;DHT22;2427;50.934;6.776;2022-11-12T02:38:30;6.10;1.00
4826;DHT22;2427;50.934;6.776;2022-11-12T02:40:56;6.10;1.00
4826;DHT22;2427;50.934;6.776;2022-11-12T02:43:21;6.10;1.00
4826;DHT22;2427;50.934;6.776;2022-11-12T02:45:47;6.10;1.00
4826;DHT22;2427;50.934;6.776;2022-11-12T02:48:12;6.10;1.00
4826;DHT22;2427;50.934;6.776;2022-11-12T02:50:38;6.10;1.00
4826;DHT22;2427;50.934;6.776;2022-11-12T02:53:04;6.10;1.00
4826;DHT22;2427;50.934;6.776;2022-11-12T02:55:29;6.00;1.00
4826;DHT22;2427;50.934;6.776;2022-11-12T02:57:58;6.00;1.00
4826;DHT22;2427;50.934;6.776;2022-11-12T03:00:24;5.90;1.00
4826;DHT22;2427;50.934;6.776;2022-11-12T03:02:49;5.90;1.00
4826;DHT22;2427;50.934;6.776;2022-11-12T03:05:29;5.90;1.00
4826;DHT22;2427;50.934;6.776;2022-11-12T03:07:56;5.90;1.00
4826;DHT22;2427;50.934;6.776;2022-11-12T03:10:23;5.80;1.00
4826;DHT22;2427;50.934;6.776;2022-11-12T03:12:49;5.80;1.00
4826;DHT22;2427;50.934;6.776;2022-11-12T03:15:15;5.80;1.00
4826;DHT22;2427;50.934;6.776;2022-11-12T03:17:42;5.80;1.00
4826;DHT22;2427;50.934;6.776;2022-11-12T03:20:08;5.70;1.00
4826;DHT22;2427;50.934;6.776;2022-11-12T03:22:34;5.70;1.00
4826;DHT22;2427;50.934;6.776;2022-11-12T03:24:59;5.70;1.00
4826;DHT22;2427;50.934;6.776;2022-11-12T03:27:25;5.70;1.00
4826;DHT22;2427;50.934;6.776;2022-11-12T03:29:51;5.70;1.00
4826;DHT22;2427;50.934;6.776;2022-11-12T03:32:16;5.60;1.00
4826;DHT22;2427;50.934;6.776;2022-11-12T03:34:42;5.60;1.00
4826;DHT22;2427;50.934;6.776;2022-11-12T03:37:07;5.60;1.00
4826;DHT22;2427;50.934;6.776;2022-11-12T03:39:34;5.60;1.00
4826;DHT22;2427;50.934;6.776;2022-11-12T03:42:00;5.60;1.00
4826;DHT22;2427;50.934;6.776;2022-11-12T03:44:26;5.60;1.00
4826;DHT22;2427;50.934;6.776;2022-11-12T03:46:51;5.50;1.00
4826;DHT22;2427;50.934;6.776;2022-11-12T03:49:17;5.50;1.00
4826;DHT22;2427;50.934;6.776;2022-11-12T03:51:42;5.50;1.00
4826;DHT22;2427;50.934;6.776;2022-11-12T03:54:08;5.50;1.00
4826;DHT22;2427;50.934;6.776;2022-11-12T03:56:33;5.50;1.00
4826;DHT22;2427;50.934;6.776;2022-11-12T03:58:59;5.50;1.00
4826;DHT22;2427;50.934;6.776;2022-11-12T04:01:25;5.60;1.00
4826;DHT22;2427;50.934;6.776;2022-11-12T04:03:50;5.60;1.00
4826;DHT22;2427;50.934;6.776;2022-11-12T04:06:16;5.60;1.00
4826;DHT22;2427;50.934;6.776;2022-11-12T04:09:00;5.50;1.00
4826;DHT22;2427;50.934;6.776;2022-11-12T04:11:25;5.50;1.00
4826;DHT22;2427;50.934;6.776;2022-11-12T04:13:51;5.50;1.00
4826;DHT22;2427;50.934;6.776;2022-11-12T04:16:19;5.40;1.00
4826;DHT22;2427;50.934;6.776;2022-11-12T04:19:04;5.40;1.00
4826;DHT22;2427;50.934;6.776;2022-11-12T04:21:54;5.40;1.00
4826;DHT22;2427;50.934;6.776;2022-11-12T04:24:30;5.30;1.00
4826;DHT22;2427;50.934;6.776;2022-11-12T04:27:23;5.30;1.00
4826;DHT22;2427;50.934;6.776;2022-11-12T04:29:49;5.40;1.00
4826;DHT22;2427;50.934;6.776;2022-11-12T04:32:39;5.40;1.00
4826;DHT22;2427;50.934;6.776;2022-11-12T04:35:06;5.50;1.00
4826;DHT22;2427;50.934;6.776;2022-11-12T04:37:34;5.50;1.00
4826;DHT22;2427;50.934;6.776;2022-11-12T04:40:20;5.40;1.00
4826;DHT22;2427;50.934;6.776;2022-11-12T04:43:08;5.40;1.00
4826;DHT22;2427;50.934;6.776;2022-11-12T04:45:54;5.40;1.00
4826;DHT22;2427;50.934;6.776;2022-11-12T04:48:21;5.30;1.00
4826;DHT22;2427;50.934;6.776;2022-11-12T04:50:55;5.30;1.00
4826;DHT22;2427;50.934;6.776;2022-11-12T04:53:22;5.20;1.00
4826;DHT22;2427;50.934;6.776;2022-11-12T04:55:56;5.30;1.00
4826;DHT22;2427;50.934;6.776;2022-11-12T04:58:22;5.30;1.00
4826;DHT22;2427;50.934;6.776;2022-11-12T05:00:49;5.30;1.00
4826;DHT22;2427;50.934;6.776;2022-11-12T05:03:15;5.30;1.00
4826;DHT22;2427;50.934;6.776;2022-11-12T05:05:41;5.40;1.00
4826;DHT22;2427;50.934;6.776;2022-11-12T05:08:07;5.40;1.00
4826;DHT22;2427;50.934;6.776;2022-11-12T05:10:32;5.30;1.00
4826;DHT22;2427;50.934;6.776;2022-11-12T05:12:58;5.30;1.00
4826;DHT22;2427;50.934;6.776;2022-11-12T05:15:23;5.30;1.00
4826;DHT22;2427;50.934;6.776;2022-11-12T05:17:50;5.20;1.00
4826;DHT22;2427;50.934;6.776;2022-11-12T05:20:16;5.20;1.00
4826;DHT22;2427;50.934;6.776;2022-11-12T05:22:41;5.10;1.00
4826;DHT22;2427;50.934;6.776;2022-11-12T05:25:07;5.10;1.00
4826;DHT22;2427;50.934;6.776;2022-11-12T05:27:33;5.10;1.00
4826;DHT22;2427;50.934;6.776;2022-11-12T05:29:59;5.00;1.00
4826;DHT22;2427;50.934;6.776;2022-11-12T05:32:25;5.00;1.00
4826;DHT22;2427;50.934;6.776;2022-11-12T05:34:51;5.00;1.00
4826;DHT22;2427;50.934;6.776;2022-11-12T05:37:16;4.90;1.00
4826;DHT22;2427;50.934;6.776;2022-11-12T05:39:42;5.00;1.00
4826;DHT22;2427;50.934;6.776;2022-11-12T05:42:08;5.00;1.00
4826;DHT22;2427;50.934;6.776;2022-11-12T05:44:33;5.00;1.00
4826;DHT22;2427;50.934;6.776;2022-11-12T05:46:59;4.90;1.00
4826;DHT22;2427;50.934;6.776;2022-11-12T05:49:25;4.90;1.00
4826;DHT22;2427;50.934;6.776;2022-11-12T05:51:50;4.90;1.00
4826;DHT22;2427;50.934;6.776;2022-11-12T05:54:17;4.90;1.00
4826;DHT22;2427;50.934;6.776;2022-11-12T05:56:43;5.00;1.00
4826;DHT22;2427;50.934;6.776;2022-11-12T05:59:11;5.00;1.00
4826;DHT22;2427;50.934;6.776;2022-11-12T06:01:36;5.00;1.00
4826;DHT22;2427;50.934;6.776;2022-11-12T06:04:09;5.00;1.00
4826;DHT22;2427;50.934;6.776;2022-11-12T06:06:35;5.00;1.00
4826;DHT22;2427;50.934;6.776;2022-11-12T06:09:01;5.00;1.00
4826;DHT22;2427;50.934;6.776;2022-11-12T06:11:26;5.00;1.00
4826;DHT22;2427;50.934;6.776;2022-11-12T06:13:52;5.00;1.00
4826;DHT22;2427;50.934;6.776;2022-11-12T06:16:17;5.00;1.00
4826;DHT22;2427;50.934;6.776;2022-11-12T06:18:43;4.90;1.00
4826;DHT22;2427;50.934;6.776;2022-11-12T06:21:10;4.90;1.00
4826;DHT22;2427;50.934;6.776;2022-11-12T06:23:46;4.90;1.00
4826;DHT22;2427;50.934;6.776;2022-11-12T06:26:12;5.00;1.00
4826;DHT22;2427;50.934;6.776;2022-11-12T06:28:38;4.90;1.00
4826;DHT22;2427;50.934;6.776;2022-11-12T06:31:04;5.00;1.00
4826;DHT22;2427;50.934;6.776;2022-11-12T06:33:30;5.00;1.00
4826;DHT22;2427;50.934;6.776;2022-11-12T06:35:57;5.00;1.00
4826;DHT22;2427;50.934;6.776;2022-11-12T06:38:23;5.00;1.00
4826;DHT22;2427;50.934;6.776;2022-11-12T06:40:48;5.00;1.00
4826;DHT22;2427;50.934;6.776;2022-11-12T06:43:14;5.00;1.00
4826;DHT22;2427;50.934;6.776;2022-11-12T06:45:39;5.00;1.00
4826;DHT22;2427;50.934;6.776;2022-11-12T06:48:05;5.00;1.00
4826;DHT22;2427;50.934;6.776;2022-11-12T06:50:30;5.10;1.00
4826;DHT22;2427;50.934;6.776;2022-11-12T06:53:02;5.00;1.00
4826;DHT22;2427;50.934;6.776;2022-11-12T06:55:28;5.10;1.00
4826;DHT22;2427;50.934;6.776;2022-11-12T06:57:53;5.10;1.00
4826;DHT22;2427;50.934;6.776;2022-11-12T07:00:19;5.10;1.00
4826;DHT22;2427;50.934;6.776;2022-11-12T07:02:45;5.10;1.00
4826;DHT22;2427;50.934;6.776;2022-11-12T07:05:10;5.10;1.00
4826;DHT22;2427;50.934;6.776;2022-11-12T07:07:36;5.10;1.00
4826;DHT22;2427;50.934;6.776;2022-11-12T07:10:01;5.10;1.00
4826;DHT22;2427;50.934;6.776;2022-11-12T07:12:27;5.10;1.00
4826;DHT22;2427;50.934;6.776;2022-11-12T07:14:53;5.10;1.00
4826;DHT22;2427;50.934;6.776;2022-11-12T07:17:18;5.20;1.00
4826;DHT22;2427;50.934;6.776;2022-11-12T07:19:44;5.20;1.00
4826;DHT22;2427;50.934;6.776;2022-11-12T07:22:09;5.30;1.00
4826;DHT22;2427;50.934;6.776;2022-11-12T07:24:35;5.20;1.00
4826;DHT22;2427;50.934;6.776;2022-11-12T07:27:00;5.30;1.00
4826;DHT22;2427;50.934;6.776;2022-11-12T07:29:26;5.30;1.00
4826;DHT22;2427;50.934;6.776;2022-11-12T07:31:51;5.30;1.00
4826;DHT22;2427;50.934;6.776;2022-11-12T07:34:17;5.40;1.00
4826;DHT22;2427;50.934;6.776;2022-11-12T07:36:43;5.40;1.00
4826;DHT22;2427;50.934;6.776;2022-11-12T07:39:08;5.40;1.00
4826;DHT22;2427;50.934;6.776;2022-11-12T07:41:34;5.50;1.00
4826;DHT22;2427;50.934;6.776;2022-11-12T07:43:59;5.50;1.00
4826;DHT22;2427;50.934;6.776;2022-11-12T07:46:26;5.60;1.00
4826;DHT22;2427;50.934;6.776;2022-11-12T07:48:53;5.60;1.00
4826;DHT22;2427;50.934;6.776;2022-11-12T07:53:45;5.70;1.00
4826;DHT22;2427;50.934;6.776;2022-11-12T07:56:17;5.70;1.00
4826;DHT22;2427;50.934;6.776;2022-11-12T07:58:43;5.70;1.00
4826;DHT22;2427;50.934;6.776;2022-11-12T08:01:27;5.80;1.00
4826;DHT22;2427;50.934;6.776;2022-11-12T08:03:53;5.80;1.00
4826;DHT22;2427;50.934;6.776;2022-11-12T08:06:19;5.90;1.00
4826;DHT22;2427;50.934;6.776;2022-11-12T08:08:45;5.90;1.00
4826;DHT22;2427;50.934;6.776;2022-11-12T08:11:10;5.90;1.00
4826;DHT22;2427;50.934;6.776;2022-11-12T08:13:36;6.00;1.00
4826;DHT22;2427;50.934;6.776;2022-11-12T08:16:02;6.00;1.00
4826;DHT22;2427;50.934;6.776;2022-11-12T08:18:28;6.10;1.00
4826;DHT22;2427;50.934;6.776;2022-11-12T08:21:01;6.10;1.00
4826;DHT22;2427;50.934;6.776;2022-11-12T08:23:27;6.20;1.00
4826;DHT22;2427;50.934;6.776;2022-11-12T08:26:00;6.30;1.00
4826;DHT22;2427;50.934;6.776;2022-11-12T08:28:27;6.40;1.00
4826;DHT22;2427;50.934;6.776;2022-11-12T08:30:53;6.40;1.00
4826;DHT22;2427;50.934;6.776;2022-11-12T08:33:19;6.50;1.00
4826;DHT22;2427;50.934;6.776;2022-11-12T08:35:44;6.50;1.00
4826;DHT22;2427;50.934;6.776;2022-11-12T08:38:10;6.60;1.00
4826;DHT22;2427;50.934;6.776;2022-11-12T08:40:37;6.70;1.00
4826;DHT22;2427;50.934;6.776;2022-11-12T08:43:05;6.70;1.00
4826;DHT22;2427;50.934;6.776;2022-11-12T08:45:33;6.80;1.00
4826;DHT22;2427;50.934;6.776;2022-11-12T08:48:04;6.90;1.00
4826;DHT22;2427;50.934;6.776;2022-11-12T08:50:30;6.90;1.00
4826;DHT22;2427;50.934;6.776;2022-11-12T08:53:10;7.00;1.00
4826;DHT22;2427;50.934;6.776;2022-11-12T08:55:36;7.10;1.00
4826;DHT22;2427;50.934;6.776;2022-11-12T08:58:03;7.10;1.00
4826;DHT22;2427;50.934;6.776;2022-11-12T09:00:31;7.20;1.00
4826;DHT22;2427;50.934;6.776;2022-11-12T09:03:01;7.30;1.00
4826;DHT22;2427;50.934;6.776;2022-11-12T09:05:27;7.40;1.00
4826;DHT22;2427;50.934;6.776;2022-11-12T09:08:00;7.50;1.00
4826;DHT22;2427;50.934;6.776;2022-11-12T09:10:27;7.50;1.00
4826;DHT22;2427;50.934;6.776;2022-11-12T09:12:53;7.60;1.00
4826;DHT22;2427;50.934;6.776;2022-11-12T09:15:20;7.70;1.00
4826;DHT22;2427;50.934;6.776;2022-11-12T09:17:46;7.80;1.00
4826;DHT22;2427;50.934;6.776;2022-11-12T09:20:12;8.00;1.00
4826;DHT22;2427;50.934;6.776;2022-11-12T09:22:38;8.00;1.00
4826;DHT22;2427;50.934;6.776;2022-11-12T09:25:04;8.10;1.00
4826;DHT22;2427;50.934;6.776;2022-11-12T09:27:29;8.20;1.00
4826;DHT22;2427;50.934;6.776;2022-11-12T09:29:55;8.20;99.90
4826;DHT22;2427;50.934;6.776;2022-11-12T09:32:21;8.30;99.90
4826;DHT22;2427;50.934;6.776;2022-11-12T09:34:46;8.30;99.90
4826;DHT22;2427;50.934;6.776;2022-11-12T09:37:12;8.40;99.90
4826;DHT22;2427;50.934;6.776;2022-11-12T09:39:37;8.50;99.90
4826;DHT22;2427;50.934;6.776;2022-11-12T09:42:07;8.60;99.90
4826;DHT22;2427;50.934;6.776;2022-11-12T09:44:35;8.80;99.90
4826;DHT22;2427;50.934;6.776;2022-11-12T09:47:08;8.90;99.90
4826;DHT22;2427;50.934;6.776;2022-11-12T09:50:01;9.00;99.90
4826;DHT22;2427;50.934;6.776;2022-11-12T09:52:29;9.10;99.90
4826;DHT22;2427;50.934;6.776;2022-11-12T09:55:23;9.20;99.90
4826;DHT22;2427;50.934;6.776;2022-11-12T09:57:50;9.30;10.50
4826;DHT22;2427;50.934;6.776;2022-11-12T10:00:17;9.40;1.00
4826;DHT22;2427;50.934;6.776;2022-11-12T10:03:12;9.50;1.00
4826;DHT22;2427;50.934;6.776;2022-11-12T10:05:45;9.60;1.00
4826;DHT22;2427;50.934;6.776;2022-11-12T10:08:28;9.60;1.00
4826;DHT22;2427;50.934;6.776;2022-11-12T10:20:54;10.40;99.90
4826;DHT22;2427;50.934;6.776;2022-11-12T10:23:30;10.60;89.80
4826;DHT22;2427;50.934;6.776;2022-11-12T10:25:59;10.80;1.00
4826;DHT22;2427;50.934;6.776;2022-11-12T10:29:07;10.90;1.00
4826;DHT22;2427;50.934;6.776;2022-11-12T10:31:35;11.00;1.00
4826;DHT22;2427;50.934;6.776;2022-11-12T10:36:49;11.30;99.90
4826;DHT22;2427;50.934;6.776;2022-11-12T10:39:36;11.40;99.90
4826;DHT22;2427;50.934;6.776;2022-11-12T10:42:22;11.60;99.90
4826;DHT22;2427;50.934;6.776;2022-11-12T10:44:48;11.70;99.90
4826;DHT22;2427;50.934;6.776;2022-11-12T10:47:32;11.80;33.40
4826;DHT22;2427;50.934;6.776;2022-11-12T10:52:34;11.90;39.50
4826;DHT22;2427;50.934;6.776;2022-11-12T10:57:31;12.10;1.00
4826;DHT22;2427;50.934;6.776;2022-11-12T11:02:53;12.40;1.00
4826;DHT22;2427;50.934;6.776;2022-11-12T11:07:52;12.90;1.00
4826;DHT22;2427;50.934;6.776;2022-11-12T11:10:35;13.10;1.00
4826;DHT22;2427;50.934;6.776;2022-11-12T11:16:03;13.50;1.00
4826;DHT22;2427;50.934;6.776;2022-11-12T11:18:32;13.60;1.00
4826;DHT22;2427;50.934;6.776;2022-11-12T11:21:16;13.80;1.00
4826;DHT22;2427;50.934;6.776;2022-11-12T11:24:11;14.30;1.00
4826;DHT22;2427;50.934;6.776;2022-11-12T11:30:00;15.60;1.00
4826;DHT22;2427;50.934;6.776;2022-11-12T11:32:41;16.50;99.90
4826;DHT22;2427;50.934;6.776;2022-11-12T11:36:01;17.20;99.90
4826;DHT22;2427;50.934;6.776;2022-11-12T11:38:15;18.00;99.90
4826;DHT22;2427;50.934;6.776;2022-11-12T11:57:29;21.30;99.90
4826;DHT22;2427;50.934;6.776;2022-11-12T12:00:14;21.80;99.90
4826;DHT22;2427;50.934;6.776;2022-11-12T12:06:12;22.70;99.90
4826;DHT22;2427;50.934;6.776;2022-11-12T12:11:32;22.60;99.90
4826;DHT22;2427;50.934;6.776;2022-11-12T12:17:12;23.00;99.90
4826;DHT22;2427;50.934;6.776;2022-11-12T12:22:39;23.30;99.90
4826;DHT22;2427;50.934;6.776;2022-11-12T12:25:32;23.70;99.90
4826;DHT22;2427;50.934;6.776;2022-11-12T12:28:05;23.70;99.90
4826;DHT22;2427;50.934;6.776;2022-11-12T12:30:35;23.90;99.90
4826;DHT22;2427;50.934;6.776;2022-11-12T12:35:57;23.70;99.90
4826;DHT22;2427;50.934;6.776;2022-11-12T12:44:04;24.40;99.90
4826;DHT22;2427;50.934;6.776;2022-11-12T12:46:33;24.60;99.90
4826;DHT22;2427;50.934;6.776;2022-11-12T12:49:03;24.70;99.90
4826;DHT22;2427;50.934;6.776;2022-11-12T12:51:32;25.20;99.90
4826;DHT22;2427;50.934;6.776;2022-11-12T12:53:58;25.90;99.90
4826;DHT22;2427;50.934;6.776;2022-11-12T12:58:52;26.00;99.90
4826;DHT22;2427;50.934;6.776;2022-11-12T13:32:56;26.60;99.90
4826;DHT22;2427;50.934;6.776;2022-11-12T13:35:35;26.40;99.90
4826;DHT22;2427;50.934;6.776;2022-11-12T13:40:49;25.20;99.90
4826;DHT22;2427;50.934;6.776;2022-11-12T13:43:27;24.90;99.90
4826;DHT22;2427;50.934;6.776;2022-11-12T13:46:18;24.90;99.90
4826;DHT22;2427;50.934;6.776;2022-11-12T13:48:57;24.90;99.90
4826;DHT22;2427;50.934;6.776;2022-11-12T13:53:58;26.00;99.90
4826;DHT22;2427;50.934;6.776;2022-11-12T13:56:30;26.30;99.90
4826;DHT22;2427;50.934;6.776;2022-11-12T13:59:14;26.40;99.90
4826;DHT22;2427;50.934;6.776;2022-11-12T14:01:40;25.70;99.90
4826;DHT22;2427;50.934;6.776;2022-11-12T14:04:09;25.40;99.90
4826;DHT22;2427;50.934;6.776;2022-11-12T14:06:44;25.60;99.90
4826;DHT22;2427;50.934;6.776;2022-11-12T14:09:49;25.90;99.90
4826;DHT22;2427;50.934;6.776;2022-11-12T14:13:02;26.20;99.90
4826;DHT22;2427;50.934;6.776;2022-11-12T14:15:32;26.60;99.90
4826;DHT22;2427;50.934;6.776;2022-11-12T14:18:10;26.50;99.90
4826;DHT22;2427;50.934;6.776;2022-11-12T14:20:39;25.90;99.90
4826;DHT22;2427;50.934;6.776;2022-11-12T14:23:14;24.60;99.90
4826;DHT22;2427;50.934;6.776;2022-11-12T14:25:54;23.40;99.90
4826;DHT22;2427;50.934;6.776;2022-11-12T14:28:29;22.30;99.90
4826;DHT22;2427;50.934;6.776;2022-11-12T14:30:56;21.30;99.90
4826;DHT22;2427;50.934;6.776;2022-11-12T14:33:24;20.40;99.90
4826;DHT22;2427;50.934;6.776;2022-11-12T14:35:51;19.50;99.90
4826;DHT22;2427;50.934;6.776;2022-11-12T14:38:26;18.90;99.90
4826;DHT22;2427;50.934;6.776;2022-11-12T14:41:37;18.20;99.90
4826;DHT22;2427;50.934;6.776;2022-11-12T14:43:59;17.80;99.90
4826;DHT22;2427;50.934;6.776;2022-11-12T14:49:05;17.10;99.90
4826;DHT22;2427;50.934;6.776;2022-11-12T14:51:52;16.80;99.90
4826;DHT22;2427;50.934;6.776;2022-11-12T14:54:28;16.50;99.90
4826;DHT22;2427;50.934;6.776;2022-11-12T14:56:55;16.30;99.90
4826;DHT22;2427;50.934;6.776;2022-11-12T14:59:21;16.20;99.90
4826;DHT22;2427;50.934;6.776;2022-11-12T15:02:14;16.10;99.90
4826;DHT22;2427;50.934;6.776;2022-11-12T15:04:51;15.90;99.90
4826;DHT22;2427;50.934;6.776;2022-11-12T15:09:48;15.70;99.90
4826;DHT22;2427;50.934;6.776;2022-11-12T15:12:20;15.50;99.90
4826;DHT22;2427;50.934;6.776;2022-11-12T15:14:46;15.40;99.90
4826;DHT22;2427;50.934;6.776;2022-11-12T15:17:30;15.20;99.90
4826;DHT22;2427;50.934;6.776;2022-11-12T15:20:18;15.00;99.90
4826;DHT22;2427;50.934;6.776;2022-11-12T15:22:51;14.90;99.90
4826;DHT22;2427;50.934;6.776;2022-11-12T15:25:28;14.80;1.00
4826;DHT22;2427;50.934;6.776;2022-11-12T15:27:54;14.60;1.00
4826;DHT22;2427;50.934;6.776;2022-11-12T15:30:24;14.40;1.00
4826;DHT22;2427;50.934;6.776;2022-11-12T15:35:38;14.10;1.00
4826;DHT22;2427;50.934;6.776;2022-11-12T15:38:21;13.90;1.00
4826;DHT22;2427;50.934;6.776;2022-11-12T15:40:52;13.70;1.00
4826;DHT22;2427;50.934;6.776;2022-11-12T15:43:21;13.50;1.00
4826;DHT22;2427;50.934;6.776;2022-11-12T15:45:49;13.30;1.00
4826;DHT22;2427;50.934;6.776;2022-11-12T15:48:15;13.20;1.20
4826;DHT22;2427;50.934;6.776;2022-11-12T15:50:40;13.00;63.60
4826;DHT22;2427;50.934;6.776;2022-11-12T15:53:06;12.90;99.90
4826;DHT22;2427;50.934;6.776;2022-11-12T15:55:32;12.80;99.90
4826;DHT22;2427;50.934;6.776;2022-11-12T15:57:59;12.70;99.90
4826;DHT22;2427;50.934;6.776;2022-11-12T16:00:33;12.60;99.90
4826;DHT22;2427;50.934;6.776;2022-11-12T16:03:18;12.40;99.90
4826;DHT22;2427;50.934;6.776;2022-11-12T16:05:44;12.30;99.90
4826;DHT22;2427;50.934;6.776;2022-11-12T16:08:10;12.20;99.90
4826;DHT22;2427;50.934;6.776;2022-11-12T16:10:37;12.10;99.90
4826;DHT22;2427;50.934;6.776;2022-11-12T16:13:04;12.00;99.90
4826;DHT22;2427;50.934;6.776;2022-11-12T16:15:31;12.00;1.00
4826;DHT22;2427;50.934;6.776;2022-11-12T16:17:57;11.90;1.00
4826;DHT22;2427;50.934;6.776;2022-11-12T16:20:28;11.80;1.00
4826;DHT22;2427;50.934;6.776;2022-11-12T16:22:53;11.70;1.00
4826;DHT22;2427;50.934;6.776;2022-11-12T16:25:20;11.60;1.00
4826;DHT22;2427;50.934;6.776;2022-11-12T16:27:46;11.60;1.00
4826;DHT22;2427;50.934;6.776;2022-11-12T16:30:20;11.50;1.00
4826;DHT22;2427;50.934;6.776;2022-11-12T16:32:47;11.40;1.00
4826;DHT22;2427;50.934;6.776;2022-11-12T16:35:13;11.40;1.00
4826;DHT22;2427;50.934;6.776;2022-11-12T16:37:41;11.30;1.00
4826;DHT22;2427;50.934;6.776;2022-11-12T16:40:12;11.30;1.00
4826;DHT22;2427;50.934;6.776;2022-11-12T16:42:38;11.30;1.00
4826;DHT22;2427;50.934;6.776;2022-11-12T16:45:16;11.20;1.00
4826;DHT22;2427;50.934;6.776;2022-11-12T16:47:44;11.20;1.00
4826;DHT22;2427;50.934;6.776;2022-11-12T16:50:12;11.10;1.00
4826;DHT22;2427;50.934;6.776;2022-11-12T16:52:38;11.10;1.00
4826;DHT22;2427;50.934;6.776;2022-11-12T16:55:04;11.00;1.00
4826;DHT22;2427;50.934;6.776;2022-11-12T16:57:29;11.00;1.00
4826;DHT22;2427;50.934;6.776;2022-11-12T16:59:55;11.00;1.00
4826;DHT22;2427;50.934;6.776;2022-11-12T17:02:21;11.00;1.00
4826;DHT22;2427;50.934;6.776;2022-11-12T17:04:46;10.90;1.00
4826;DHT22;2427;50.934;6.776;2022-11-12T17:07:12;10.90;1.00
4826;DHT22;2427;50.934;6.776;2022-11-12T17:09:37;10.90;1.00
4826;DHT22;2427;50.934;6.776;2022-11-12T17:12:03;10.90;1.00
4826;DHT22;2427;50.934;6.776;2022-11-12T17:14:29;10.90;1.00
4826;DHT22;2427;50.934;6.776;2022-11-12T17:16:54;10.90;1.00
4826;DHT22;2427;50.934;6.776;2022-11-12T17:19:20;10.90;1.00
4826;DHT22;2427;50.934;6.776;2022-11-12T17:21:45;10.80;1.00
4826;DHT22;2427;50.934;6.776;2022-11-12T17:24:11;10.80;1.00
4826;DHT22;2427;50.934;6.776;2022-11-12T17:26:37;10.80;1.00
4826;DHT22;2427;50.934;6.776;2022-11-12T17:29:02;10.80;1.00
4826;DHT22;2427;50.934;6.776;2022-11-12T17:31:28;10.80;1.00
4826;DHT22;2427;50.934;6.776;2022-11-12T17:33:54;10.80;1.00
4826;DHT22;2427;50.934;6.776;2022-11-12T17:36:22;10.70;1.00
4826;DHT22;2427;50.934;6.776;2022-11-12T17:38:51;10.70;1.00
4826;DHT22;2427;50.934;6.776;2022-11-12T17:41:17;10.70;1.00
4826;DHT22;2427;50.934;6.776;2022-11-12T17:43:42;10.70;1.00
4826;DHT22;2427;50.934;6.776;2022-11-12T17:46:09;10.70;99.90
4826;DHT22;2427;50.934;6.776;2022-11-12T17:48:36;10.70;99.90
4826;DHT22;2427;50.934;6.776;2022-11-12T17:53:29;10.60;99.90
4826;DHT22;2427;50.934;6.776;2022-11-12T17:55:55;10.60;1.00
4826;DHT22;2427;50.934;6.776;2022-11-12T17:58:21;10.60;1.00
4826;DHT22;2427;50.934;6.776;2022-11-12T18:00:47;10.60;1.00
4826;DHT22;2427;50.934;6.776;2022-11-12T18:03:13;10.60;1.00
4826;DHT22;2427;50.934;6.776;2022-11-12T18:05:38;10.60;1.00
4826;DHT22;2427;50.934;6.776;2022-11-12T18:08:04;10.50;1.00
4826;DHT22;2427;50.934;6.776;2022-11-12T18:10:29;10.50;1.00
4826;DHT22;2427;50.934;6.776;2022-11-12T18:12:55;10.50;1.00
4826;DHT22;2427;50.934;6.776;2022-11-12T18:15:22;10.50;99.90
4826;DHT22;2427;50.934;6.776;2022-11-12T18:17:47;10.50;99.90
4826;DHT22;2427;50.934;6.776;2022-11-12T18:20:13;10.50;99.90
4826;DHT22;2427;50.934;6.776;2022-11-12T18:22:38;10.50;99.90
4826;DHT22;2427;50.934;6.776;2022-11-12T18:25:04;10.50;99.90
4826;DHT22;2427;50.934;6.776;2022-11-12T18:27:30;10.40;99.90
4826;DHT22;2427;50.934;6.776;2022-11-12T18:29:56;10.40;99.90
4826;DHT22;2427;50.934;6.776;2022-11-12T18:32:21;10.40;99.90
4826;DHT22;2427;50.934;6.776;2022-11-12T18:34:47;10.40;99.90
4826;DHT22;2427;50.934;6.776;2022-11-12T18:37:12;10.40;99.90
4826;DHT22;2427;50.934;6.776;2022-11-12T18:39:38;10.40;99.90
4826;DHT22;2427;50.934;6.776;2022-11-12T18:42:04;10.40;99.90
4826;DHT22;2427;50.934;6.776;2022-11-12T18:44:29;10.30;99.90